createdAt,value
2019-04-30T04:24:50.400Z,15.25
2019-04-30T04:27:21.193Z,16.23
2019-04-30T04:29:51.527Z,16.40
2019-04-30T04:32:24.424Z,16.73
2019-04-30T04:34:54.951Z,17.07
2019-04-30T04:37:25.267Z,16.20
2019-04-30T04:39:55.559Z,16.63
2019-04-30T04:42:26.129Z,16.03
2019-04-30T04:44:56.393Z,16.70
2019-04-30T04:47:26.727Z,16.53
2019-04-30T04:49:57.027Z,16.33
2019-04-30T04:52:31.117Z,15.23
2019-04-30T04:55:00.332Z,16.50
2019-04-30T04:57:31.640Z,15.87
2019-04-30T05:00:07.094Z,16.23
2019-04-30T05:02:42.095Z,16.03
2019-04-30T05:05:12.864Z,17.07
2019-04-30T05:07:43.349Z,16.97
2019-04-30T05:10:14.009Z,18.27
2019-04-30T05:12:44.416Z,17.40
2019-04-30T05:15:14.852Z,16.73
2019-04-30T05:17:45.172Z,16.50
2019-04-30T05:20:15.571Z,16.27
2019-04-30T05:22:48.945Z,15.83
2019-04-30T05:25:20.833Z,15.40
2019-04-30T05:27:51.291Z,16.43
2019-04-30T05:30:24.982Z,15.97
2019-04-30T05:32:58.498Z,15.90
2019-04-30T05:35:31.039Z,16.33
2019-04-30T05:38:01.073Z,16.33
2019-04-30T05:40:31.650Z,16.33
2019-04-30T05:43:02.152Z,15.27
2019-04-30T05:45:33.707Z,15.57
2019-04-30T05:48:04.484Z,16.00
2019-04-30T05:50:34.849Z,15.60
2019-04-30T05:53:05.201Z,15.67
2019-04-30T05:55:35.579Z,15.73
2019-04-30T05:58:05.939Z,15.87
2019-04-30T06:00:36.449Z,16.33
2019-04-30T06:03:09.300Z,15.43
2019-04-30T06:05:39.574Z,15.80
2019-04-30T06:08:13.328Z,15.57
2019-04-30T06:10:51.780Z,15.73
2019-04-30T06:13:44.336Z,15.17
2019-04-30T06:16:18.795Z,15.20
2019-04-30T06:18:49.136Z,15.30
2019-04-30T06:21:21.578Z,14.93
2019-04-30T06:23:51.361Z,15.23
2019-04-30T06:26:21.889Z,15.67
2019-04-30T06:28:52.200Z,14.63
2019-04-30T06:31:32.359Z,15.70
2019-04-30T06:33:54.468Z,16.57
2019-04-30T06:36:25.296Z,15.87
2019-04-30T06:38:55.674Z,16.60
2019-04-30T06:41:26.107Z,16.20
2019-04-30T06:43:58.644Z,16.50
2019-04-30T06:46:28.945Z,16.83
2019-04-30T06:48:59.652Z,16.73
2019-04-30T06:51:31.317Z,16.97
2019-04-30T06:54:01.663Z,16.50
2019-04-30T06:56:31.951Z,17.23
2019-04-30T06:59:04.829Z,16.30
2019-04-30T07:01:35.324Z,16.97
2019-04-30T07:04:05.666Z,17.87
2019-04-30T07:06:37.157Z,16.57
2019-04-30T07:09:22.030Z,17.30
2019-04-30T07:11:59.273Z,16.63
2019-04-30T07:14:30.173Z,16.67
2019-04-30T07:17:00.512Z,16.30
2019-04-30T07:19:38.244Z,17.33
2019-04-30T07:22:02.802Z,16.07
2019-04-30T07:24:33.159Z,16.67
2019-04-30T07:27:03.428Z,14.33
2019-04-30T07:29:33.757Z,15.33
2019-04-30T07:32:04.076Z,14.43
2019-04-30T07:34:37.013Z,14.47
2019-04-30T07:37:16.315Z,14.30
2019-04-30T07:39:39.398Z,13.43
2019-04-30T07:42:09.731Z,12.87
2019-04-30T07:44:40.069Z,12.30
2019-04-30T07:47:10.371Z,12.50
2019-04-30T07:49:49.846Z,12.43
2019-04-30T07:52:13.084Z,12.17
2019-04-30T07:54:43.949Z,12.00
2019-04-30T07:57:14.289Z,10.80
2019-04-30T07:59:44.583Z,10.93
2019-04-30T08:02:14.998Z,10.37
2019-04-30T08:04:56.833Z,10.57
2019-04-30T08:07:27.124Z,9.33
2019-04-30T08:09:58.968Z,9.70
2019-04-30T08:12:34.377Z,9.37
2019-04-30T08:15:01.384Z,9.30
2019-04-30T08:17:33.244Z,9.00
2019-04-30T08:20:03.636Z,9.23
2019-04-30T08:22:34.094Z,9.20
2019-04-30T08:25:04.471Z,9.73
2019-04-30T08:27:34.768Z,9.43
2019-04-30T08:30:18.355Z,9.50
2019-04-30T08:32:38.675Z,8.60
2019-04-30T08:35:09.855Z,8.00
2019-04-30T08:37:41.706Z,7.67
2019-04-30T08:40:12.024Z,7.87
2019-04-30T08:42:42.362Z,7.90
2019-04-30T08:45:12.772Z,7.60
2019-04-30T08:47:43.074Z,7.23
2019-04-30T08:50:13.657Z,7.47
2019-04-30T08:52:44.035Z,7.27
2019-04-30T08:55:17.139Z,7.17
2019-04-30T08:57:47.676Z,7.27
2019-04-30T09:00:19.513Z,7.00
2019-04-30T09:02:49.990Z,7.90
2019-04-30T09:05:30.475Z,7.20
2019-04-30T09:08:00.472Z,7.33
2019-04-30T09:10:30.806Z,6.20
2019-04-30T09:13:01.232Z,5.90
2019-04-30T09:15:31.562Z,6.30
2019-04-30T09:18:06.344Z,5.70
2019-04-30T09:20:34.983Z,6.00
2019-04-30T09:23:05.291Z,5.27
2019-04-30T09:25:35.607Z,5.70
2019-04-30T09:28:05.898Z,5.00
2019-04-30T09:30:36.258Z,5.70
2019-04-30T09:33:06.549Z,5.30
2019-04-30T09:35:39.358Z,5.90
2019-04-30T09:38:09.329Z,5.27
2019-04-30T09:40:41.640Z,5.60
2019-04-30T09:43:11.585Z,5.20
2019-04-30T09:45:41.908Z,4.83
2019-04-30T09:48:12.213Z,5.30
2019-04-30T09:50:42.844Z,4.70
2019-04-30T09:53:13.386Z,4.83
2019-04-30T09:55:43.624Z,4.90
2019-04-30T09:58:17.408Z,4.63
2019-04-30T10:00:45.909Z,4.93
2019-04-30T10:03:17.603Z,4.17
2019-04-30T10:05:49.139Z,3.97
2019-04-30T10:08:21.367Z,3.60
2019-04-30T10:11:09.769Z,4.07
2019-04-30T10:13:40.212Z,4.00
2019-04-30T10:16:29.644Z,4.30
2019-04-30T10:19:01.434Z,4.30
2019-04-30T10:21:31.849Z,4.23
2019-04-30T10:24:12.433Z,4.17
2019-04-30T10:26:34.708Z,4.10
2019-04-30T10:29:05.250Z,4.20
2019-04-30T10:31:35.561Z,3.97
2019-04-30T10:34:05.894Z,4.07
2019-04-30T10:36:36.295Z,4.30
2019-04-30T10:39:09.341Z,3.80
2019-04-30T10:41:40.200Z,4.03
2019-04-30T10:44:10.983Z,4.33
2019-04-30T10:46:41.797Z,4.30
2019-04-30T10:49:12.481Z,4.37
2019-04-30T10:51:43.191Z,4.40
2019-04-30T10:54:23.204Z,4.53
2019-04-30T10:56:46.067Z,4.10
2019-04-30T10:59:16.644Z,4.12
2019-04-30T11:01:49.190Z,4.30
2019-04-30T11:04:20.272Z,4.20
2019-04-30T11:06:50.850Z,4.45
2019-04-30T11:09:21.699Z,4.70
2019-04-30T11:11:53.371Z,4.80
2019-04-30T11:14:23.892Z,5.40
2019-04-30T11:17:13.665Z,4.53
2019-04-30T11:19:44.745Z,4.75
2019-04-30T11:22:15.970Z,4.35
2019-04-30T11:24:56.670Z,4.47
2019-04-30T11:27:20.667Z,4.40
2019-04-30T11:29:50.970Z,4.85
2019-04-30T11:32:23.473Z,4.70
2019-04-30T11:34:53.940Z,4.40
2019-04-30T11:37:24.260Z,3.87
2019-04-30T11:39:54.562Z,3.77
2019-04-30T11:42:24.892Z,4.20
2019-04-30T11:44:55.205Z,4.17
2019-04-30T11:47:36.684Z,4.28
2019-04-30T11:50:10.305Z,4.20
2019-04-30T11:52:40.712Z,4.35
2019-04-30T11:55:11.536Z,4.22
2019-04-30T11:57:41.856Z,4.37
2019-04-30T12:00:18.693Z,4.65
2019-04-30T12:02:52.905Z,4.12
2019-04-30T12:05:21.101Z,4.00
2019-04-30T12:08:03.935Z,4.37
2019-04-30T12:11:02.233Z,4.30
2019-04-30T12:13:33.713Z,4.80
2019-04-30T12:16:05.568Z,4.05
2019-04-30T12:18:36.989Z,4.78
2019-04-30T12:21:07.280Z,4.58
2019-04-30T12:23:37.658Z,4.70
2019-04-30T12:26:09.174Z,4.45
2019-04-30T12:28:39.701Z,4.60
2019-04-30T12:31:10.020Z,4.30
2019-04-30T12:33:40.390Z,4.28
2019-04-30T12:36:10.750Z,4.50
2019-04-30T12:38:41.086Z,4.50
2019-04-30T12:41:11.412Z,4.60
2019-04-30T12:43:41.754Z,4.20
2019-04-30T12:46:12.127Z,4.65
2019-04-30T12:48:56.850Z,4.20
2019-04-30T12:51:52.423Z,4.72
2019-04-30T12:54:31.858Z,4.40
2019-04-30T12:57:12.771Z,4.40
2019-04-30T12:59:43.086Z,4.58
2019-04-30T13:02:13.487Z,4.40
2019-04-30T13:04:43.992Z,4.40
2019-04-30T13:07:14.856Z,4.10
2019-04-30T13:09:45.868Z,4.08
2019-04-30T13:12:16.906Z,3.75
2019-04-30T13:14:53.947Z,3.80
2019-04-30T13:17:19.345Z,4.20
2019-04-30T13:19:49.711Z,3.98
2019-04-30T13:22:20.000Z,4.05
2019-04-30T13:24:50.439Z,4.00
2019-04-30T13:27:22.345Z,4.20
2019-04-30T13:30:11.649Z,4.05
2019-04-30T13:32:54.961Z,3.92
2019-04-30T13:35:25.391Z,3.83
2019-04-30T13:38:04.309Z,3.60
2019-04-30T13:40:41.538Z,4.03
2019-04-30T13:43:12.007Z,3.70
2019-04-30T13:45:42.323Z,4.10
2019-04-30T13:48:12.546Z,4.00
2019-04-30T13:50:42.849Z,4.33
2019-04-30T13:53:13.149Z,4.00
2019-04-30T13:55:45.905Z,4.33
2019-04-30T13:58:17.992Z,4.30
2019-04-30T14:00:49.437Z,4.30
2019-04-30T14:03:30.008Z,4.10
2019-04-30T14:06:00.351Z,4.55
2019-04-30T14:08:35.346Z,4.50
2019-04-30T14:11:05.643Z,4.67
2019-04-30T14:13:35.952Z,4.25
2019-04-30T14:16:06.362Z,4.17
2019-04-30T14:18:39.144Z,4.53
2019-04-30T14:21:09.528Z,4.20
2019-04-30T14:23:39.824Z,4.70
2019-04-30T14:26:10.144Z,4.50
2019-04-30T14:28:40.506Z,4.60
2019-04-30T14:31:10.818Z,4.67
2019-04-30T14:33:41.138Z,4.47
2019-04-30T14:36:11.549Z,5.12
2019-04-30T14:38:41.864Z,4.90
2019-04-30T14:41:12.841Z,5.28
2019-04-30T14:43:51.566Z,4.92
2019-04-30T14:46:41.756Z,5.30
2019-04-30T14:49:31.012Z,5.47
2019-04-30T14:52:02.192Z,5.08
2019-04-30T14:54:58.675Z,5.45
2019-04-30T14:57:51.277Z,6.15
2019-04-30T15:00:41.774Z,5.62
2019-04-30T15:03:14.121Z,5.17
2019-04-30T15:05:48.640Z,5.03
2019-04-30T15:08:16.535Z,5.00
2019-04-30T15:10:46.835Z,5.03
2019-04-30T15:13:19.381Z,4.80
2019-04-30T15:15:49.223Z,5.15
2019-04-30T15:18:19.527Z,5.45
2019-04-30T15:20:49.966Z,5.42
2019-04-30T15:23:40.326Z,5.15
2019-04-30T15:26:21.370Z,5.58
2019-04-30T15:28:42.540Z,5.62
2019-04-30T15:31:12.919Z,6.20
2019-04-30T15:34:02.234Z,6.05
2019-04-30T15:36:22.859Z,6.30
2019-04-30T15:39:10.918Z,6.10
2019-04-30T15:41:41.298Z,6.40
2019-04-30T15:44:11.707Z,6.78
2019-04-30T15:46:42.255Z,6.67
2019-04-30T15:49:12.910Z,6.95
2019-04-30T15:51:43.413Z,8.28
2019-04-30T15:54:13.732Z,6.87
2019-04-30T15:56:44.609Z,7.40
2019-04-30T15:59:34.678Z,7.08
2019-04-30T16:02:34.759Z,7.40
2019-04-30T16:05:32.232Z,7.67
2019-04-30T16:08:15.524Z,7.20
2019-04-30T16:11:13.869Z,7.33
2019-04-30T16:14:18.690Z,7.35
2019-04-30T16:17:14.460Z,7.45
2019-04-30T16:19:45.238Z,7.70
2019-04-30T16:22:16.045Z,6.92
2019-04-30T16:24:46.590Z,7.10
2019-04-30T16:27:19.176Z,7.12
2019-04-30T16:29:51.153Z,7.10
2019-04-30T16:32:23.455Z,6.85
2019-04-30T16:34:54.631Z,7.50
2019-04-30T16:37:25.173Z,7.05
2019-04-30T16:39:55.578Z,6.30
2019-04-30T16:42:25.895Z,6.65
2019-04-30T16:44:56.179Z,6.87
2019-04-30T16:47:26.566Z,6.65
2019-04-30T16:49:58.777Z,6.22
2019-04-30T16:52:29.454Z,6.70
2019-04-30T16:55:00.003Z,6.08
2019-04-30T16:57:30.456Z,5.92
2019-04-30T17:00:00.714Z,6.62
2019-04-30T17:02:32.432Z,6.33
2019-04-30T17:05:14.800Z,6.47
2019-04-30T17:08:09.539Z,6.03
2019-04-30T17:11:11.171Z,6.03
2019-04-30T17:13:54.689Z,5.95
2019-04-30T17:16:25.270Z,5.78
2019-04-30T17:18:56.263Z,6.33
2019-04-30T17:21:26.607Z,5.97
2019-04-30T17:23:58.755Z,6.30
2019-04-30T17:26:29.842Z,6.05
2019-04-30T17:29:00.247Z,6.12
2019-04-30T17:31:30.525Z,6.08
2019-04-30T17:34:01.123Z,6.30
2019-04-30T17:36:31.640Z,6.28
2019-04-30T17:39:02.158Z,5.95
2019-04-30T17:41:34.331Z,6.30
2019-04-30T17:44:04.819Z,6.28
2019-04-30T17:46:35.250Z,5.80
2019-04-30T17:49:06.482Z,6.20
2019-04-30T17:51:37.280Z,6.00
2019-04-30T17:54:13.602Z,5.90
2019-04-30T17:56:44.854Z,5.60
2019-04-30T17:59:15.262Z,6.03
2019-04-30T18:01:52.055Z,6.40
2019-04-30T18:04:22.607Z,5.95
2019-04-30T18:06:53.404Z,5.90
2019-04-30T18:09:24.637Z,6.00
2019-04-30T18:11:55.609Z,5.58
2019-04-30T18:14:26.002Z,5.50
2019-04-30T18:16:56.349Z,5.33
2019-04-30T18:19:38.587Z,6.37
2019-04-30T18:22:22.313Z,6.10
2019-04-30T18:25:04.098Z,6.10
2019-04-30T18:27:45.938Z,5.80
2019-04-30T18:30:13.884Z,5.80
2019-04-30T18:32:44.224Z,6.27
2019-04-30T18:35:14.643Z,5.87
2019-04-30T18:37:45.005Z,5.90
2019-04-30T18:40:15.602Z,6.40
2019-04-30T18:42:45.867Z,6.47
2019-04-30T18:45:16.509Z,6.00
2019-04-30T18:47:46.870Z,5.73
2019-04-30T18:50:17.395Z,6.37
2019-04-30T18:52:50.367Z,6.20
2019-04-30T18:55:20.334Z,6.30
2019-04-30T18:57:56.688Z,6.50
2019-04-30T19:00:32.925Z,6.60
2019-04-30T19:03:03.358Z,6.23
2019-04-30T19:05:34.166Z,6.50
2019-04-30T19:08:09.867Z,6.27
2019-04-30T19:11:09.000Z,6.93
2019-04-30T19:14:10.584Z,6.27
2019-04-30T19:16:54.949Z,6.40
2019-04-30T19:19:48.313Z,6.73
2019-04-30T19:22:19.611Z,6.70
2019-04-30T19:24:58.243Z,6.73
2019-04-30T19:27:21.948Z,6.67
2019-04-30T19:29:52.250Z,7.33
2019-04-30T19:32:22.680Z,7.77
2019-04-30T19:34:52.992Z,7.33
2019-04-30T19:37:23.327Z,6.73
2019-04-30T19:39:53.813Z,7.10
2019-04-30T19:42:24.201Z,7.33
2019-04-30T19:45:00.620Z,7.10
2019-04-30T19:47:26.647Z,6.70
2019-04-30T19:49:56.960Z,6.87
2019-04-30T19:52:29.480Z,7.00
2019-04-30T19:54:59.424Z,6.13
2019-04-30T19:57:29.863Z,6.70
2019-04-30T20:00:00.526Z,6.90
2019-04-30T20:02:30.899Z,6.90
2019-04-30T20:05:01.424Z,6.90
2019-04-30T20:07:31.982Z,7.60
2019-04-30T20:10:04.135Z,7.10
2019-04-30T20:12:39.605Z,7.23
2019-04-30T20:15:17.355Z,7.00
2019-04-30T20:17:43.068Z,7.03
2019-04-30T20:20:13.497Z,7.80
2019-04-30T20:22:44.424Z,7.53
2019-04-30T20:25:19.047Z,7.60
2019-04-30T20:27:50.576Z,7.73
2019-04-30T20:30:24.083Z,7.80
2019-04-30T20:32:59.455Z,7.30
2019-04-30T20:35:30.820Z,7.20
2019-04-30T20:38:22.464Z,7.60
2019-04-30T20:41:00.284Z,7.70
2019-04-30T20:43:25.370Z,8.77
2019-04-30T20:45:55.769Z,7.63
2019-04-30T20:48:26.097Z,8.23
2019-04-30T20:50:56.728Z,8.93
2019-04-30T20:53:27.105Z,8.50
2019-04-30T20:55:59.252Z,8.43
2019-04-30T20:58:29.766Z,8.60
2019-04-30T21:01:05.939Z,10.57
2019-04-30T21:03:32.214Z,10.23
2019-04-30T21:06:02.599Z,9.60
2019-04-30T21:08:32.968Z,9.83
2019-04-30T21:11:03.284Z,9.60
2019-04-30T21:13:33.702Z,11.00
2019-04-30T21:16:03.999Z,9.73
2019-04-30T21:18:34.362Z,9.23
2019-04-30T21:21:04.706Z,9.17
2019-04-30T21:23:35.042Z,9.63
2019-04-30T21:26:05.372Z,9.20
2019-04-30T21:28:35.731Z,9.03
2019-04-30T21:31:24.069Z,9.33
2019-04-30T21:33:58.821Z,9.47
2019-04-30T21:36:30.001Z,9.57
2019-04-30T21:39:00.364Z,9.50
2019-04-30T21:41:30.759Z,9.17
2019-04-30T21:44:01.133Z,9.77
2019-04-30T21:46:31.881Z,9.27
2019-04-30T21:49:03.191Z,9.70
2019-04-30T21:51:35.307Z,9.10
2019-04-30T21:54:06.224Z,8.83
